Time;durP1;ratioP1;P1;durP2;ratioP2;P2;SDS_P1;SDS_P2;PMS_P1;PMS_P2;Temp;Humidity;BMP_temperature;BMP_pressure;BME280_temperature;BME280_humidity;BME280_pressure;Samples;Min_cycle;Max_cycle;Signal;HPM_P1;HPM_P2
2023/05/06 00:00:23;;;;;;;;;;;;;;;;;;1046661;28;2152;-48
2023/05/06 00:01:14;;;;;;;;;;;;;;;;;;1045194;28;4105;-49
2023/05/06 00:01:44;;;;;;;;;;;;;;;;;;1046111;28;3839;-51
2023/05/06 00:02:14;;;;;;;;;;;;;;;;;;1042555;28;1656;-49
2023/05/06 00:02:45;;;;;;;;;;;;;;;;;;1041844;28;4128;-50
2023/05/06 00:03:16;;;;;;;;;;;;;;;;;;1044309;28;2524;-49
2023/05/06 00:03:46;;;;;;;;;;;;;;;;;;1047169;28;3890;-51
2023/05/06 00:04:16;;;;;;;;;;;;;;;;;;1047125;28;1815;-49
2023/05/06 00:04:47;;;;;;;;;;;;;;;;;;1045655;28;3964;-49
2023/05/06 00:05:17;;;;;;;;;;;;;;;;;;1046972;28;1887;-50
2023/05/06 00:05:48;;;;;;;;;;;;;;;;;;1047324;28;3918;-50
2023/05/06 00:06:18;;;;;;;;;;;;;;;;;;1047154;28;1785;-51
2023/05/06 00:06:49;;;;;;;;;;;;;;;;;;1046063;28;3957;-47
2023/05/06 00:07:19;;;;;;;;;;;;;;;;;;1046672;28;2556;-48
2023/05/06 00:07:49;;;;;;;;;;;;;;;;;;1041828;28;4097;-51
2023/05/06 00:08:20;;;;;;;;;;;;;;;;;;1046368;28;2883;-48
2023/05/06 00:08:50;;;;;;;;;;;;;;;;;;1046714;28;4043;-52
2023/05/06 00:09:20;;;;;;;;;;;;;;;;;;1045170;28;1757;-48
2023/05/06 00:09:50;;;;;;;;;;;;;;;;;;1045396;28;4411;-48
2023/05/06 00:10:21;;;;;;;;;;;;;;;;;;1046413;28;2004;-48
2023/05/06 00:10:51;;;;;;;;;;;;;;;;;;1042244;28;3938;-52
2023/05/06 00:11:21;;;;;;;;;;;;;;;;;;1047746;28;1624;-50
2023/05/06 00:11:52;;;;;;;;;;;;;;;;;;1045561;28;4024;-49
2023/05/06 00:12:22;;;;;;;;;;;;;;;;;;1046179;28;2053;-49
2023/05/06 00:12:52;;;;;;;;;;;;;;;;;;1044542;28;3784;-50
2023/05/06 00:13:22;;;;;;;;;;;;;;;;;;1045335;28;1845;-47
2023/05/06 00:13:53;;;;;;;;;;;;;;;;;;1046862;28;4003;-48
2023/05/06 00:14:23;;;;;;;;;;;;;;;;;;1047844;28;2126;-47
2023/05/06 00:14:53;;;;;;;;;;;;;;;;;;1043879;28;4221;-48
2023/05/06 00:15:23;;;;;;;;;;;;;;;;;;1044163;28;2585;-49
2023/05/06 00:15:54;;;;;;;;;;;;;;;;;;1046332;28;3966;-49
2023/05/06 00:16:24;;;;;;;;;;;;;;;;;;1046193;28;1865;-53
2023/05/06 00:16:54;;;;;;;;;;;;;;;;;;1045908;28;3857;-48
2023/05/06 00:17:24;;;;;;;;;;;;;;;;;;1046565;28;1797;-49
2023/05/06 00:17:55;;;;;;;;;;;;;;;;;;1046598;28;3963;-53
2023/05/06 00:18:25;;;;;;;;;;;;;;;;;;1045078;28;3495;-51
2023/05/06 00:18:55;;;;;;;;;;;;;;;;;;1045497;28;4097;-52
2023/05/06 00:19:26;;;;;;;;;;;;;;;;;;1047018;28;1344;-53
2023/05/06 00:19:57;;;;;;;;;;;;;;;;;;1045790;28;4363;-51
2023/05/06 00:20:27;;;;;;;;;;;;;;;;;;1047974;28;1797;-51
2023/05/06 00:20:58;;;;;;;;;;;;;;;;;;1047699;28;4082;-50
2023/05/06 00:21:28;;;;;;;;;;;;;;;;;;1046980;28;1970;-50
2023/05/06 00:21:58;;;;;;;;;;;;;;;;;;1045001;28;4058;-50
2023/05/06 00:22:29;;;;;;;;;;;;;;;;;;1046657;28;1711;-50
2023/05/06 00:22:59;;;;;;;;;;;;;;;;;;1045595;28;4208;-48
2023/05/06 00:23:30;;;;;;;;;;;;;;;;;;1046829;28;2529;-51
2023/05/06 00:24:00;;;;;;;;;;;;;;;;;;1045460;28;5192;-53
2023/05/06 00:24:30;;;;;;;;;;;;;;;;;;1046597;28;1715;-50
2023/05/06 00:25:02;;;;;;;;;;;;;;;;;;1043587;28;4173;-47
2023/05/06 00:25:32;;;;;;;;;;;;;;;;;;1044596;28;3228;-49
2023/05/06 00:26:02;;;;;;;;;;;;;;;;;;1046635;28;3718;-49
2023/05/06 00:26:33;;;;;;;;;;;;;;;;;;1047703;28;1600;-51
2023/05/06 00:27:03;;;;;;;;;;;;;;;;;;1043007;28;4192;-53
2023/05/06 00:27:33;;;;;;;;;;;;;;;;;;1047233;28;2108;-47
2023/05/06 00:28:03;;;;;;;;;;;;;;;;;;1044862;28;3942;-49
2023/05/06 00:28:34;;;;;;;;;;;;;;;;;;1045268;28;2163;-50
2023/05/06 00:29:04;;;;;;;;;;;;;;;;;;1044249;28;3778;-50
2023/05/06 00:29:34;;;;;;;;;;;;;;;;;;1043808;28;2417;-48
2023/05/06 00:30:05;;;;;;;;;;;;;;;;;;1044458;28;5216;-53
2023/05/06 00:30:35;;;;;;;;;;;;;;;;;;1043341;28;2414;-48
2023/05/06 00:31:05;;;;;;;;;;;;;;;;;;1046972;28;3911;-48
2023/05/06 00:31:36;;;;;;;;;;;;;;;;;;1044848;28;2102;-51
2023/05/06 00:32:06;;;;;;;;;;;;;;;;;;1045431;28;3740;-52
2023/05/06 00:32:36;;;;;;;;;;;;;;;;;;1046222;28;2081;-50
2023/05/06 00:33:06;;;;;;;;;;;;;;;;;;1044747;28;4742;-51
2023/05/06 00:33:37;;;;;;;;;;;;;;;;;;1044756;28;1907;-50
2023/05/06 00:34:07;;;;;;;;;;;;;;;;;;1046349;28;4176;-53
2023/05/06 00:34:38;;;;;;;;;;;;;;;;;;1045938;28;2101;-50
2023/05/06 00:35:08;;;;;;;;;;;;;;;;;;1043943;28;3860;-50
2023/05/06 00:35:38;;;;;;;;;;;;;;;;;;1044309;28;2107;-50
2023/05/06 00:36:09;;;;;;;;;;;;;;;;;;1044658;28;4024;-46
2023/05/06 00:36:41;;;;;;;;;;;;;;;;;;1045643;28;1829;-50
2023/05/06 00:37:11;;;;;;;;;;;;;;;;;;1047074;28;3845;-50
2023/05/06 00:37:45;;;;;;;;;;;;;;;;;;1044664;28;2451;-51
2023/05/06 00:38:15;;;;;;;;;;;;;;;;;;1045300;28;4130;-50
2023/05/06 00:38:46;;;;;;;;;;;;;;;;;;1045737;28;4064;-50
2023/05/06 00:39:16;;;;;;;;;;;;;;;;;;1046545;28;2830;-49
2023/05/06 00:39:46;;;;;;;;;;;;;;;;;;1044457;28;3891;-52
2023/05/06 00:40:17;;;;;;;;;;;;;;;;;;1044669;28;1929;-48
2023/05/06 00:40:47;;;;;;;;;;;;;;;;;;1044718;28;3778;-50
2023/05/06 00:41:17;;;;;;;;;;;;;;;;;;1046920;28;2438;-49
2023/05/06 00:41:48;;;;;;;;;;;;;;;;;;1045062;28;4562;-51
2023/05/06 00:42:18;;;;;;;;;;;;;;;;;;1044872;28;2825;-53
2023/05/06 00:42:48;;;;;;;;;;;;;;;;;;1043995;28;4098;-51
2023/05/06 00:43:19;;;;;;;;;;;;;;;;;;1042107;28;2946;-53
2023/05/06 00:43:49;;;;;;;;;;;;;;;;;;1045163;28;3999;-49
2023/05/06 00:44:19;;;;;;;;;;;;;;;;;;1045622;28;2093;-49
2023/05/06 00:44:50;;;;;;;;;;;;;;;;;;1044772;28;4061;-53
2023/05/06 00:45:20;;;;;;;;;;;;;;;;;;1043557;28;2654;-51
2023/05/06 00:45:50;;;;;;;;;;;;;;;;;;1044175;28;3888;-52
2023/05/06 00:46:21;;;;;;;;;;;;;;;;;;1043848;28;2422;-49
2023/05/06 00:46:51;;;;;;;;;;;;;;;;;;1044340;28;3873;-52
2023/05/06 00:47:21;;;;;;;;;;;;;;;;;;1042320;28;3581;-51
2023/05/06 00:47:52;;;;;;;;;;;;;;;;;;1044881;28;3937;-47
2023/05/06 00:48:22;;;;;;;;;;;;;;;;;;1041612;28;2654;-51
2023/05/06 00:48:53;;;;;;;;;;;;;;;;;;1044545;28;3781;-53
2023/05/06 00:49:24;;;;;;;;;;;;;;;;;;1042494;28;2956;-46
2023/05/06 00:49:55;;;;;;;;;;;;;;;;;;1043327;28;4062;-50
2023/05/06 00:50:27;;;;;;;;;;;;;;;;;;1043925;28;2931;-50
2023/05/06 00:50:57;;;;;;;;;;;;;;;;;;1046345;28;4363;-48
2023/05/06 00:51:28;;;;;;;;;;;;;;;;;;1044565;28;2476;-49
2023/05/06 00:51:58;;;;;;;;;;;;;;;;;;1045952;28;4018;-47
2023/05/06 00:52:29;;;;;;;;;;;;;;;;;;1044248;28;2172;-52
2023/05/06 00:53:00;;;;;;;;;;;;;;;;;;1045278;28;4088;-48
2023/05/06 00:53:31;;;;;;;;;;;;;;;;;;1045028;28;1983;-49
2023/05/06 00:54:02;;;;;;;;;;;;;;;;;;1044547;28;4055;-50
2023/05/06 00:54:33;;;;;;;;;;;;;;;;;;1044785;28;2649;-48
2023/05/06 00:55:03;;;;;;;;;;;;;;;;;;1046125;28;4075;-48
2023/05/06 00:55:33;;;;;;;;;;;;;;;;;;1043738;28;2144;-48
2023/05/06 00:56:04;;;;;;;;;;;;;;;;;;1042921;28;3954;-49
2023/05/06 00:56:34;;;;;;;;;;;;;;;;;;1044880;28;2808;-51
2023/05/06 00:57:05;;;;;;;;;;;;;;;;;;1044490;28;3724;-49
2023/05/06 00:57:35;;;;;;;;;;;;;;;;;;1046830;28;1818;-51
2023/05/06 00:58:06;;;;;;;;;;;;;;;;;;1044590;28;4110;-48
2023/05/06 00:58:36;;;;;;;;;;;;;;;;;;1045008;28;2019;-54
2023/05/06 00:59:06;;;;;;;;;;;;;;;;;;1045084;28;3903;-50
2023/05/06 00:59:37;;;;;;;;;;;;;;;;;;1046785;28;1977;-47
2023/05/06 01:00:07;;;;;;;;;;;;;;;;;;1044945;28;3939;-51
2023/05/06 01:00:37;;;;;;;;;;;;;;;;;;1044869;28;2397;-49
2023/05/06 01:01:08;;;;;;;;;;;;;;;;;;1044166;28;3725;-49
2023/05/06 01:01:39;;;;;;;;;;;;;;;;;;1044974;28;2714;-48
2023/05/06 01:02:09;;;;;;;;;;;;;;;;;;1043475;28;4031;-51
2023/05/06 01:02:39;;;;;;;;;;;;;;;;;;1046151;28;2021;-49
2023/05/06 01:03:10;;;;;;;;;;;;;;;;;;1044569;28;3866;-50
2023/05/06 01:03:40;;;;;;;;;;;;;;;;;;1044166;28;2098;-51
2023/05/06 01:04:11;;;;;;;;;;;;;;;;;;1043550;28;3693;-49
2023/05/06 01:04:41;;;;;;;;;;;;;;;;;;1045824;28;2285;-55
2023/05/06 01:05:12;;;;;;;;;;;;;;;;;;1044147;28;3901;-48
2023/05/06 01:06:02;;;;;;;;;;;;;;;;;;1045441;28;1906;-51
2023/05/06 01:06:52;;;;;;;;;;;;;;;;;;1045363;28;3795;-51
2023/05/06 01:07:27;;;;;;;;;;;;;;;;;;1044643;28;3948;-51
2023/05/06 01:08:07;;;;;;;;;;;;;;;;;;1045631;28;3903;-48
2023/05/06 01:08:43;;;;;;;;;;;;;;;;;;1043013;28;3132;-50
2023/05/06 01:09:19;;;;;;;;;;;;;;;;;;1042410;28;3948;-49
2023/05/06 01:10:05;;;;;;;;;;;;;;;;;;1045722;28;3776;-51
2023/05/06 01:10:45;;;;;;;;;;;;;;;;;;1043948;28;2868;-51
2023/05/06 01:11:20;;;;;;;;;;;;;;;;;;1044591;28;3837;-47
2023/05/06 01:12:08;;;;;;;;;;;;;;;;;;1043588;28;3958;-47
2023/05/06 01:12:45;;;;;;;;;;;;;;;;;;1045893;28;1781;-48
2023/05/06 01:13:20;;;;;;;;;;;;;;;;;;1045599;28;3753;-46
2023/05/06 01:13:55;;;;;;;;;;;;;;;;;;1045005;28;4052;-49
2023/05/06 01:14:47;;;;;;;;;;;;;;;;;;1043461;28;1646;-46
2023/05/06 01:15:27;;;;;;;;;;;;;;;;;;1045962;28;3928;-50
2023/05/06 01:15:58;;;;;;;;;;;;;;;;;;1044200;28;4049;-50
2023/05/06 01:16:30;;;;;;;;;;;;;;;;;;1042079;28;2652;-48
2023/05/06 01:17:02;;;;;;;;;;;;;;;;;;1041676;28;3840;-50
2023/05/06 01:17:34;;;;;;;;;;;;;;;;;;1041567;28;1892;-47
2023/05/06 01:18:07;;;;;;;;;;;;;;;;;;1040317;28;3780;-49
2023/05/06 01:18:38;;;;;;;;;;;;;;;;;;1041944;28;1963;-51
2023/05/06 01:19:11;;;;;;;;;;;;;;;;;;1041566;28;3883;-46
2023/05/06 01:19:47;;;;;;;;;;;;;;;;;;1043307;28;1663;-49
2023/05/06 01:20:20;;;;;;;;;;;;;;;;;;1045379;28;3662;-49
2023/05/06 01:20:51;;;;;;;;;;;;;;;;;;1045032;28;4041;-51
2023/05/06 01:21:23;;;;;;;;;;;;;;;;;;1045705;28;1910;-47
2023/05/06 01:21:55;;;;;;;;;;;;;;;;;;1045461;28;3828;-50
2023/05/06 01:22:25;;;;;;;;;;;;;;;;;;1042331;28;1981;-51
2023/05/06 01:22:56;;;;;;;;;;;;;;;;;;1042946;28;3800;-50
2023/05/06 01:23:26;;;;;;;;;;;;;;;;;;1042653;28;1830;-47
2023/05/06 01:23:56;;;;;;;;;;;;;;;;;;1043005;28;4151;-47
2023/05/06 01:24:34;;;;;;;;;;;;;;;;;;1042725;28;1949;-48
2023/05/06 01:25:05;;;;;;;;;;;;;;;;;;1040292;28;4342;-52
2023/05/06 01:25:35;;;;;;;;;;;;;;;;;;1042740;28;2088;-49
2023/05/06 01:26:05;;;;;;;;;;;;;;;;;;1042501;28;3868;-48
2023/05/06 01:26:36;;;;;;;;;;;;;;;;;;1042627;28;1697;-48
2023/05/06 01:27:07;;;;;;;;;;;;;;;;;;1043065;28;3953;-51
2023/05/06 01:27:37;;;;;;;;;;;;;;;;;;1042109;28;1874;-51
2023/05/06 01:28:10;;;;;;;;;;;;;;;;;;1043564;28;3722;-48
2023/05/06 01:28:40;;;;;;;;;;;;;;;;;;1041317;28;2377;-49
2023/05/06 01:29:10;;;;;;;;;;;;;;;;;;1040963;28;3891;-47
2023/05/06 01:29:42;;;;;;;;;;;;;;;;;;1041586;28;1908;-49
2023/05/06 01:30:14;;;;;;;;;;;;;;;;;;1042943;28;3642;-50
2023/05/06 01:30:50;;;;;;;;;;;;;;;;;;1040645;28;3784;-49
2023/05/06 01:31:24;;;;;;;;;;;;;;;;;;1042378;28;3236;-50
2023/05/06 01:31:57;;;;;;;;;;;;;;;;;;1040505;28;4037;-47
2023/05/06 01:32:32;;;;;;;;;;;;;;;;;;1039678;28;2194;-51
2023/05/06 01:33:05;;;;;;;;;;;;;;;;;;1039826;28;3928;-50
2023/05/06 01:33:39;;;;;;;;;;;;;;;;;;1043006;28;2956;-49
2023/05/06 01:34:24;;;;;;;;;;;;;;;;;;1038986;28;3942;-50
2023/05/06 01:35:10;;;;;;;;;;;;;;;;;;1040868;28;4034;-53
2023/05/06 01:36:03;;;;;;;;;;;;;;;;;;1042153;28;2270;-48
2023/05/06 01:36:39;;;;;;;;;;;;;;;;;;1046071;28;4569;-53
2023/05/06 01:37:15;;;;;;;;;;;;;;;;;;1042540;28;3957;-48
2023/05/06 01:37:57;;;;;;;;;;;;;;;;;;1049837;28;4453;-53
2023/05/06 01:38:34;;;;;;;;;;;;;;;;;;1048597;28;2388;-51
2023/05/06 01:39:18;;;;;;;;;;;;;;;;;;1050119;28;3944;-48
2023/05/06 01:39:48;;;;;;;;;;;;;;;;;;1041175;28;3808;-49
2023/05/06 01:40:19;;;;;;;;;;;;;;;;;;1041003;28;2219;-48
2023/05/06 01:40:53;;;;;;;;;;;;;;;;;;1042158;28;3938;-48
2023/05/06 01:41:23;;;;;;;;;;;;;;;;;;1046805;28;1964;-48
2023/05/06 01:41:56;;;;;;;;;;;;;;;;;;1045649;28;4056;-49
2023/05/06 01:42:27;;;;;;;;;;;;;;;;;;1045320;28;1978;-52
2023/05/06 01:42:59;;;;;;;;;;;;;;;;;;1046683;28;4072;-49
2023/05/06 01:43:32;;;;;;;;;;;;;;;;;;1044834;28;1887;-49
2023/05/06 01:44:04;;;;;;;;;;;;;;;;;;1042334;28;3962;-49
2023/05/06 01:44:35;;;;;;;;;;;;;;;;;;1046653;28;1851;-52
2023/05/06 01:45:06;;;;;;;;;;;;;;;;;;1045067;28;4044;-48
2023/05/06 01:45:38;;;;;;;;;;;;;;;;;;1044984;28;2043;-48
2023/05/06 01:46:16;;;;;;;;;;;;;;;;;;1045079;28;3912;-53
2023/05/06 01:46:47;;;;;;;;;;;;;;;;;;1044062;28;4015;-50
2023/05/06 01:47:18;;;;;;;;;;;;;;;;;;1046205;28;2037;-50
2023/05/06 01:47:49;;;;;;;;;;;;;;;;;;1046078;28;4397;-51
2023/05/06 01:48:27;;;;;;;;;;;;;;;;;;1047095;28;1957;-50
2023/05/06 01:48:59;;;;;;;;;;;;;;;;;;1046002;28;3771;-49
2023/05/06 01:49:30;;;;;;;;;;;;;;;;;;1045822;28;2040;-54
2023/05/06 01:50:00;;;;;;;;;;;;;;;;;;1045344;28;4086;-56
2023/05/06 01:50:31;;;;;;;;;;;;;;;;;;1044274;28;2392;-47
2023/05/06 01:51:02;;;;;;;;;;;;;;;;;;1046832;28;4031;-49
2023/05/06 01:51:33;;;;;;;;;;;;;;;;;;1045304;28;2274;-48
2023/05/06 01:52:03;;;;;;;;;;;;;;;;;;1046334;28;4018;-51
2023/05/06 01:52:33;;;;;;;;;;;;;;;;;;1042311;28;2342;-48
2023/05/06 01:53:03;;;;;;;;;;;;;;;;;;1046798;28;3886;-48
2023/05/06 01:53:34;;;;;;;;;;;;;;;;;;1045026;28;2115;-48
2023/05/06 01:54:04;;;;;;;;;;;;;;;;;;1042956;28;3854;-50
2023/05/06 01:54:34;;;;;;;;;;;;;;;;;;1047067;28;1743;-50
2023/05/06 01:55:05;;;;;;;;;;;;;;;;;;1044705;28;4080;-52
2023/05/06 01:55:35;;;;;;;;;;;;;;;;;;1044241;28;1883;-48
2023/05/06 01:56:06;;;;;;;;;;;;;;;;;;1046662;28;4023;-48
2023/05/06 01:56:36;;;;;;;;;;;;;;;;;;1045182;28;1894;-50
2023/05/06 01:57:06;;;;;;;;;;;;;;;;;;1044782;28;4090;-50
2023/05/06 01:57:37;;;;;;;;;;;;;;;;;;1044829;28;1833;-50
2023/05/06 01:58:07;;;;;;;;;;;;;;;;;;1044677;28;3991;-47
2023/05/06 01:58:38;;;;;;;;;;;;;;;;;;1045115;28;1898;-47
2023/05/06 01:59:08;;;;;;;;;;;;;;;;;;1045283;28;3679;-48
2023/05/06 01:59:38;;;;;;;;;;;;;;;;;;1046630;28;2175;-47
2023/05/06 02:00:09;;;;;;;;;;;;;;;;;;1039527;28;4705;-49
2023/05/06 02:00:39;;;;;;;;;;;;;;;;;;1043271;28;2742;-51
2023/05/06 02:01:09;;;;;;;;;;;;;;;;;;1044751;28;3844;-51
2023/05/06 02:01:39;;;;;;;;;;;;;;;;;;1044331;28;2319;-47
2023/05/06 02:02:10;;;;;;;;;;;;;;;;;;1042733;28;3866;-49
2023/05/06 02:02:40;;;;;;;;;;;;;;;;;;1046078;28;2467;-49
2023/05/06 02:03:10;;;;;;;;;;;;;;;;;;1045781;28;3798;-50
2023/05/06 02:03:41;;;;;;;;;;;;;;;;;;1044536;28;2355;-51
2023/05/06 02:04:11;;;;;;;;;;;;;;;;;;1045239;28;3839;-47
2023/05/06 02:04:41;;;;;;;;;;;;;;;;;;1047082;28;1757;-46
2023/05/06 02:05:12;;;;;;;;;;;;;;;;;;1044855;28;3924;-50
2023/05/06 02:05:42;;;;;;;;;;;;;;;;;;1045598;28;1989;-49
2023/05/06 02:06:12;;;;;;;;;;;;;;;;;;1046537;28;3943;-46
2023/05/06 02:06:42;;;;;;;;;;;;;;;;;;1045079;28;1783;-48
2023/05/06 02:07:13;;;;;;;;;;;;;;;;;;1046772;28;3849;-48
2023/05/06 02:07:43;;;;;;;;;;;;;;;;;;1045752;28;3773;-48
2023/05/06 02:08:13;;;;;;;;;;;;;;;;;;1046449;28;1818;-48
2023/05/06 02:08:43;;;;;;;;;;;;;;;;;;1043261;28;4049;-50
2023/05/06 02:09:14;;;;;;;;;;;;;;;;;;1045026;28;1821;-50
2023/05/06 02:09:44;;;;;;;;;;;;;;;;;;1043828;28;3914;-47
2023/05/06 02:10:14;;;;;;;;;;;;;;;;;;1045389;28;1970;-53
2023/05/06 02:10:45;;;;;;;;;;;;;;;;;;1041691;28;3967;-48
2023/05/06 02:11:15;;;;;;;;;;;;;;;;;;1043096;28;2104;-49
2023/05/06 02:11:46;;;;;;;;;;;;;;;;;;1043811;28;4050;-51
2023/05/06 02:12:16;;;;;;;;;;;;;;;;;;1042986;28;1841;-47
2023/05/06 02:12:47;;;;;;;;;;;;;;;;;;1045507;28;4211;-55
2023/05/06 02:13:17;;;;;;;;;;;;;;;;;;1044575;28;2448;-52
2023/05/06 02:13:47;;;;;;;;;;;;;;;;;;1045648;28;4634;-50
2023/05/06 02:14:18;;;;;;;;;;;;;;;;;;1053368;28;3115;-50
2023/05/06 02:14:48;;;;;;;;;;;;;;;;;;1052543;28;4157;-49
2023/05/06 02:15:18;;;;;;;;;;;;;;;;;;1051730;28;2622;-49
2023/05/06 02:15:52;;;;;;;;;;;;;;;;;;1053350;28;4234;-49
2023/05/06 02:16:26;;;;;;;;;;;;;;;;;;1045713;28;1863;-52
2023/05/06 02:16:56;;;;;;;;;;;;;;;;;;1044342;28;3881;-51
2023/05/06 02:17:26;;;;;;;;;;;;;;;;;;1044163;28;2350;-50
2023/05/06 02:17:58;;;;;;;;;;;;;;;;;;1043222;28;4446;-49
2023/05/06 02:18:28;;;;;;;;;;;;;;;;;;1046407;28;1816;-51
2023/05/06 02:18:59;;;;;;;;;;;;;;;;;;1044404;28;4106;-49
2023/05/06 02:19:30;;;;;;;;;;;;;;;;;;1047077;28;1692;-50
2023/05/06 02:20:00;;;;;;;;;;;;;;;;;;1044776;28;3978;-48
2023/05/06 02:20:30;;;;;;;;;;;;;;;;;;1045327;28;2040;-49
2023/05/06 02:21:02;;;;;;;;;;;;;;;;;;1045916;28;4012;-48
2023/05/06 02:21:32;;;;;;;;;;;;;;;;;;1043301;28;2062;-51
2023/05/06 02:22:02;;;;;;;;;;;;;;;;;;1046088;28;4030;-46
2023/05/06 02:22:32;;;;;;;;;;;;;;;;;;1046691;28;1692;-47
2023/05/06 02:23:03;;;;;;;;;;;;;;;;;;1044642;28;4064;-50
2023/05/06 02:23:33;;;;;;;;;;;;;;;;;;1044854;28;1784;-50
2023/05/06 02:24:04;;;;;;;;;;;;;;;;;;1045022;28;4053;-50
2023/05/06 02:24:34;;;;;;;;;;;;;;;;;;1044885;28;1781;-48
2023/05/06 02:25:05;;;;;;;;;;;;;;;;;;1044317;28;4273;-49
2023/05/06 02:25:35;;;;;;;;;;;;;;;;;;1046940;28;1610;-50
2023/05/06 02:26:05;;;;;;;;;;;;;;;;;;1045052;28;3771;-53
2023/05/06 02:26:36;;;;;;;;;;;;;;;;;;1046597;28;1689;-52
2023/05/06 02:27:06;;;;;;;;;;;;;;;;;;1045013;28;3806;-49
2023/05/06 02:27:36;;;;;;;;;;;;;;;;;;1046009;28;1689;-51
2023/05/06 02:28:07;;;;;;;;;;;;;;;;;;1044523;28;3789;-50
2023/05/06 02:28:37;;;;;;;;;;;;;;;;;;1044121;28;2014;-48
2023/05/06 02:29:07;;;;;;;;;;;;;;;;;;1043678;28;3771;-49
2023/05/06 02:29:37;;;;;;;;;;;;;;;;;;1045137;28;1984;-49
2023/05/06 02:30:08;;;;;;;;;;;;;;;;;;1043568;28;3904;-53
2023/05/06 02:30:38;;;;;;;;;;;;;;;;;;1043303;28;2392;-48
2023/05/06 02:31:11;;;;;;;;;;;;;;;;;;1044300;28;3737;-47
2023/05/06 02:31:42;;;;;;;;;;;;;;;;;;1044926;28;2275;-50
2023/05/06 02:32:12;;;;;;;;;;;;;;;;;;1045606;28;3793;-49
2023/05/06 02:32:43;;;;;;;;;;;;;;;;;;1047025;28;1799;-49
2023/05/06 02:33:13;;;;;;;;;;;;;;;;;;1046722;28;3846;-48
2023/05/06 02:33:44;;;;;;;;;;;;;;;;;;1044728;28;3842;-46
2023/05/06 02:34:15;;;;;;;;;;;;;;;;;;1040164;28;2019;-52
2023/05/06 02:34:45;;;;;;;;;;;;;;;;;;1042479;28;4246;-50
2023/05/06 02:35:15;;;;;;;;;;;;;;;;;;1041964;28;2581;-48
2023/05/06 02:35:45;;;;;;;;;;;;;;;;;;1037593;28;3794;-51
2023/05/06 02:36:16;;;;;;;;;;;;;;;;;;1039764;28;2934;-48
2023/05/06 02:36:46;;;;;;;;;;;;;;;;;;1042207;28;3801;-49
2023/05/06 02:37:16;;;;;;;;;;;;;;;;;;1041383;28;1847;-51
2023/05/06 02:37:47;;;;;;;;;;;;;;;;;;1040330;28;3789;-49
2023/05/06 02:38:18;;;;;;;;;;;;;;;;;;1040596;28;1809;-48
2023/05/06 02:38:48;;;;;;;;;;;;;;;;;;1039554;28;4021;-47
2023/05/06 02:39:18;;;;;;;;;;;;;;;;;;1042940;28;1943;-50
2023/05/06 02:39:48;;;;;;;;;;;;;;;;;;1040237;28;3967;-52
2023/05/06 02:40:19;;;;;;;;;;;;;;;;;;1040124;28;1935;-48
2023/05/06 02:40:49;;;;;;;;;;;;;;;;;;1040840;28;4287;-47
2023/05/06 02:41:20;;;;;;;;;;;;;;;;;;1038348;28;2616;-50
2023/05/06 02:41:50;;;;;;;;;;;;;;;;;;1039356;28;4358;-48
2023/05/06 02:42:20;;;;;;;;;;;;;;;;;;1041397;28;1840;-47
2023/05/06 02:42:50;;;;;;;;;;;;;;;;;;1041074;28;3908;-51
2023/05/06 02:43:21;;;;;;;;;;;;;;;;;;1041990;28;1863;-50
2023/05/06 02:43:52;;;;;;;;;;;;;;;;;;1038107;28;3947;-52
2023/05/06 02:44:22;;;;;;;;;;;;;;;;;;1041264;28;2002;-52
2023/05/06 02:44:52;;;;;;;;;;;;;;;;;;1037556;28;3787;-51
2023/05/06 02:45:22;;;;;;;;;;;;;;;;;;1037946;28;2748;-50
2023/05/06 02:45:53;;;;;;;;;;;;;;;;;;1039413;28;4035;-49
2023/05/06 02:46:23;;;;;;;;;;;;;;;;;;1039310;28;1913;-53
2023/05/06 02:46:53;;;;;;;;;;;;;;;;;;1037347;28;3882;-47
2023/05/06 02:47:23;;;;;;;;;;;;;;;;;;1041415;28;1711;-49
2023/05/06 02:47:54;;;;;;;;;;;;;;;;;;1042385;28;4088;-50
2023/05/06 02:48:24;;;;;;;;;;;;;;;;;;1041050;28;1942;-50
2023/05/06 02:48:54;;;;;;;;;;;;;;;;;;1040879;28;4230;-51
2023/05/06 02:49:25;;;;;;;;;;;;;;;;;;1041354;28;2193;-47
2023/05/06 02:49:55;;;;;;;;;;;;;;;;;;1042243;28;3869;-50
2023/05/06 02:50:25;;;;;;;;;;;;;;;;;;1041049;28;2338;-50
2023/05/06 02:50:56;;;;;;;;;;;;;;;;;;1039567;28;4050;-48
2023/05/06 02:51:26;;;;;;;;;;;;;;;;;;1040340;28;2501;-50
2023/05/06 02:51:56;;;;;;;;;;;;;;;;;;1041592;28;4078;-51
2023/05/06 02:52:27;;;;;;;;;;;;;;;;;;1041666;28;1979;-48
2023/05/06 02:52:57;;;;;;;;;;;;;;;;;;1042045;28;4071;-47
2023/05/06 02:53:27;;;;;;;;;;;;;;;;;;1043191;28;1592;-52
2023/05/06 02:53:57;;;;;;;;;;;;;;;;;;1038436;28;4085;-49
2023/05/06 02:54:28;;;;;;;;;;;;;;;;;;1039330;28;2679;-49
2023/05/06 02:54:58;;;;;;;;;;;;;;;;;;1040067;28;4015;-50
2023/05/06 02:55:28;;;;;;;;;;;;;;;;;;1040484;28;2010;-50
2023/05/06 02:55:58;;;;;;;;;;;;;;;;;;1041011;28;4001;-48
2023/05/06 02:56:30;;;;;;;;;;;;;;;;;;1041861;28;2003;-48
2023/05/06 02:57:00;;;;;;;;;;;;;;;;;;1040934;28;3778;-48
2023/05/06 02:57:30;;;;;;;;;;;;;;;;;;1043138;28;1918;-47
2023/05/06 02:58:01;;;;;;;;;;;;;;;;;;1038433;28;4054;-49
2023/05/06 02:58:31;;;;;;;;;;;;;;;;;;1041092;28;1959;-50
2023/05/06 02:59:02;;;;;;;;;;;;;;;;;;1039905;28;3860;-50
2023/05/06 02:59:33;;;;;;;;;;;;;;;;;;1039209;28;2133;-47
2023/05/06 03:00:05;;;;;;;;;;;;;;;;;;1040130;28;4005;-52
2023/05/06 03:00:35;;;;;;;;;;;;;;;;;;1040239;28;2717;-50
2023/05/06 03:01:06;;;;;;;;;;;;;;;;;;1040938;28;4450;-52
2023/05/06 03:01:36;;;;;;;;;;;;;;;;;;1040353;28;3396;-50
2023/05/06 03:02:06;;;;;;;;;;;;;;;;;;1041374;28;4067;-48
2023/05/06 03:02:37;;;;;;;;;;;;;;;;;;1041268;28;1816;-50
2023/05/06 03:03:07;;;;;;;;;;;;;;;;;;1041781;28;3732;-50
2023/05/06 03:03:38;;;;;;;;;;;;;;;;;;1040797;28;2075;-50
2023/05/06 03:04:08;;;;;;;;;;;;;;;;;;1040498;28;4043;-51
2023/05/06 03:04:38;;;;;;;;;;;;;;;;;;1043141;28;1853;-49
2023/05/06 03:05:08;;;;;;;;;;;;;;;;;;1040655;28;4039;-48
2023/05/06 03:05:39;;;;;;;;;;;;;;;;;;1040719;28;1910;-48
2023/05/06 03:06:09;;;;;;;;;;;;;;;;;;1042853;28;3738;-50
2023/05/06 03:06:39;;;;;;;;;;;;;;;;;;1042672;28;1727;-48
2023/05/06 03:07:11;;;;;;;;;;;;;;;;;;1041937;28;3971;-48
2023/05/06 03:07:42;;;;;;;;;;;;;;;;;;1042140;28;2086;-48
2023/05/06 03:08:12;;;;;;;;;;;;;;;;;;1042145;28;4075;-49
2023/05/06 03:08:42;;;;;;;;;;;;;;;;;;1039841;28;2081;-51
2023/05/06 03:09:14;;;;;;;;;;;;;;;;;;1040841;28;3960;-49
2023/05/06 03:09:44;;;;;;;;;;;;;;;;;;1040145;28;3841;-49
2023/05/06 03:10:15;;;;;;;;;;;;;;;;;;1040026;28;1976;-49
2023/05/06 03:10:45;;;;;;;;;;;;;;;;;;1040548;28;4096;-52
2023/05/06 03:11:15;;;;;;;;;;;;;;;;;;1041499;28;2197;-48
2023/05/06 03:11:46;;;;;;;;;;;;;;;;;;1043173;28;4060;-50
2023/05/06 03:12:16;;;;;;;;;;;;;;;;;;1040638;28;1970;-51
2023/05/06 03:12:46;;;;;;;;;;;;;;;;;;1040102;28;3862;-50
2023/05/06 03:13:17;;;;;;;;;;;;;;;;;;1042234;28;1887;-49
2023/05/06 03:13:47;;;;;;;;;;;;;;;;;;1040917;28;4237;-52
2023/05/06 03:14:17;;;;;;;;;;;;;;;;;;1040707;28;2404;-49
2023/05/06 03:14:47;;;;;;;;;;;;;;;;;;1041804;28;3918;-49
2023/05/06 03:15:18;;;;;;;;;;;;;;;;;;1040923;28;2586;-49
2023/05/06 03:15:52;;;;;;;;;;;;;;;;;;1043293;28;4146;-47
2023/05/06 03:16:23;;;;;;;;;;;;;;;;;;1042261;28;2101;-47
2023/05/06 03:16:53;;;;;;;;;;;;;;;;;;1041291;28;3958;-49
2023/05/06 03:17:23;;;;;;;;;;;;;;;;;;1042429;28;1875;-49
2023/05/06 03:17:54;;;;;;;;;;;;;;;;;;1041747;28;3790;-50
2023/05/06 03:18:24;;;;;;;;;;;;;;;;;;1042552;28;1710;-50
2023/05/06 03:18:54;;;;;;;;;;;;;;;;;;1040987;28;4025;-52
2023/05/06 03:19:24;;;;;;;;;;;;;;;;;;1040598;28;2037;-50
2023/05/06 03:19:55;;;;;;;;;;;;;;;;;;1042017;28;4049;-49
2023/05/06 03:20:27;;;;;;;;;;;;;;;;;;1042808;28;1597;-52
2023/05/06 03:20:57;;;;;;;;;;;;;;;;;;1037371;28;3798;-46
2023/05/06 03:21:28;;;;;;;;;;;;;;;;;;1042357;28;2009;-51
2023/05/06 03:21:58;;;;;;;;;;;;;;;;;;1041058;28;3972;-51
2023/05/06 03:22:29;;;;;;;;;;;;;;;;;;1042102;28;1906;-52
2023/05/06 03:22:59;;;;;;;;;;;;;;;;;;1037364;28;3790;-48
2023/05/06 03:23:29;;;;;;;;;;;;;;;;;;1042080;28;3226;-49
2023/05/06 03:24:00;;;;;;;;;;;;;;;;;;1042928;28;4058;-49
2023/05/06 03:24:30;;;;;;;;;;;;;;;;;;1040565;28;2103;-46
2023/05/06 03:25:00;;;;;;;;;;;;;;;;;;1039708;28;3810;-49
2023/05/06 03:25:30;;;;;;;;;;;;;;;;;;1039817;28;1666;-51
2023/05/06 03:26:01;;;;;;;;;;;;;;;;;;1042457;28;3796;-51
2023/05/06 03:26:31;;;;;;;;;;;;;;;;;;1042629;28;2163;-48
2023/05/06 03:27:01;;;;;;;;;;;;;;;;;;1040760;28;4077;-48
2023/05/06 03:27:32;;;;;;;;;;;;;;;;;;1040631;28;2255;-50
2023/05/06 03:28:02;;;;;;;;;;;;;;;;;;1041606;28;3943;-51
2023/05/06 03:28:32;;;;;;;;;;;;;;;;;;1041730;28;1938;-48
2023/05/06 03:29:03;;;;;;;;;;;;;;;;;;1039680;28;4004;-50
2023/05/06 03:29:34;;;;;;;;;;;;;;;;;;1042317;28;1875;-49
2023/05/06 03:30:05;;;;;;;;;;;;;;;;;;1041787;28;4399;-50
2023/05/06 03:30:35;;;;;;;;;;;;;;;;;;1040880;28;2796;-49
2023/05/06 03:31:05;;;;;;;;;;;;;;;;;;1041291;28;3854;-48
2023/05/06 03:31:36;;;;;;;;;;;;;;;;;;1043145;28;2009;-49
2023/05/06 03:32:06;;;;;;;;;;;;;;;;;;1040949;28;4043;-49
2023/05/06 03:32:36;;;;;;;;;;;;;;;;;;1040923;28;3756;-49
2023/05/06 03:33:07;;;;;;;;;;;;;;;;;;1041537;28;3774;-47
2023/05/06 03:33:37;;;;;;;;;;;;;;;;;;1042775;28;1735;-48
2023/05/06 03:34:07;;;;;;;;;;;;;;;;;;1039917;28;3804;-47
2023/05/06 03:34:38;;;;;;;;;;;;;;;;;;1043743;28;2035;-51
2023/05/06 03:35:09;;;;;;;;;;;;;;;;;;1043327;28;4150;-50
2023/05/06 03:35:39;;;;;;;;;;;;;;;;;;1041858;28;2200;-49
2023/05/06 03:36:10;;;;;;;;;;;;;;;;;;1039030;28;3813;-50
2023/05/06 03:36:41;;;;;;;;;;;;;;;;;;1043233;28;1702;-53
2023/05/06 03:37:11;;;;;;;;;;;;;;;;;;1041506;28;4290;-50
2023/05/06 03:37:41;;;;;;;;;;;;;;;;;;1043268;28;1789;-50